Airfield :
LOGIN :

Register | Disclaimer

   EN    FR    IT 

 










Legend :    VFR   Marginal VFR   IFR   Intensive IFR   Very Intensive IFR
Visi :
Ceiling :
>= 8 km
>= 3000ft
5 to 8 km
1000 to 3000 ft
1500m to 5 km
500 to 1000 ft
800 to 1500m
200 to 500 ft
< 800m
< 200 ft
Symbols :   Thunderstorms  Fog  Heavy snow  Heavy precipitations  Wind > 20 kt
SIGMETs :     Misc.  Thunderstorms  Icing  Turbulence  Mountain Waves  Volcanic Ashes







- Airport Elevation : 433 ft
- IATA code : CCF
- Download approach charts


LFMK - Carcassonne

CURRENT METAR :
  • 130630Z AUTO 10009KT 070V140 9999 OVC017 05/01 Q1009 NOSIG

EXPIRED METARs :
  • 130600Z AUTO 09010KT 9999 OVC017 05/02 Q1009 NOSIG
  • 130530Z AUTO 09010KT 9999 OVC020 05/03 Q1009 BECMG BKN008 BKN020
  • 130500Z AUTO 08011KT 9999 OVC021 05/03 Q1010 BECMG BKN008 BKN020
  • 130430Z AUTO 09011KT 9999 OVC019 05/04 Q1010 BECMG BKN008 BKN020
  • 130400Z AUTO 08013KT 9999 OVC017 05/04 Q1010 TEMPO 3000 BR BECMG BKN008 BKN020

TAF AMD TAF LFMK
Valid from the 13 at 05:00 until the 14 at 03:00 UTC


130532Z 1305/1403 09012KT 9999 SCT010 BKN020
BECMG 1310/1312 BKN013 OVC020
TEMPO 1310/1403 4000 -RA
No reported NOTAMs for that airfield.
1 SIGMET reported for the Bordeaux FIR (LFBB) :
 
Severe turbulence
LFBB SIGMET 1 VALID 130600/130800 LFPW
LFBB BORDEAUX FIR/UIR SEV TURB OBS WI N4245 W00030 - N4300 W00145 - N4630 W00130 - N4630 W00015 - N4700 W00015 - N4245 W00030 FL300/390 STNR NC=



MET'MAP, your aeronautical weather chart ! - Copyright ORBIFLY December 2007 - Disclaimer

ORBIFLY MET'MAP TEAM :

Programming & Development : Alexandra Zaïnal
Concept & Development : Baudouin d'Aumeries
Co-Development & Prog : Marc-Olivier Méhu
Technical & hardware support : Manuel Goepfert

Contact : metmap@orbifly.com




SOURCES & CREDITS :

   NOAA